sensor_id;sensor_type;location;lat;lon;timestamp;temperature;humidity
82506;SHT30;72144;51.444;10.560;2023-11-21T00:02:17;7.34;80.90
82506;SHT30;72144;51.444;10.560;2023-11-21T00:04:43;7.28;80.88
82506;SHT30;72144;51.444;10.560;2023-11-21T00:07:08;7.28;80.88
82506;SHT30;72144;51.444;10.560;2023-11-21T00:09:34;7.24;80.83
82506;SHT30;72144;51.444;10.560;2023-11-21T00:12:01;7.23;80.88
82506;SHT30;72144;51.444;10.560;2023-11-21T00:14:27;7.22;80.84
82506;SHT30;72144;51.444;10.560;2023-11-21T00:16:52;7.22;81.01
82506;SHT30;72144;51.444;10.560;2023-11-21T00:19:18;7.16;81.05
82506;SHT30;72144;51.444;10.560;2023-11-21T00:21:43;7.17;81.17
82506;SHT30;72144;51.444;10.560;2023-11-21T00:24:11;7.15;81.04
82506;SHT30;72144;51.444;10.560;2023-11-21T00:26:39;7.13;81.07
82506;SHT30;72144;51.444;10.560;2023-11-21T00:29:04;7.10;80.99
82506;SHT30;72144;51.444;10.560;2023-11-21T00:31:34;7.10;81.02
82506;SHT30;72144;51.444;10.560;2023-11-21T00:33:59;7.09;80.90
82506;SHT30;72144;51.444;10.560;2023-11-21T00:36:24;7.06;80.97
82506;SHT30;72144;51.444;10.560;2023-11-21T00:38:51;7.05;80.90
82506;SHT30;72144;51.444;10.560;2023-11-21T00:41:16;7.02;80.85
82506;SHT30;72144;51.444;10.560;2023-11-21T00:43:41;7.00;80.93
82506;SHT30;72144;51.444;10.560;2023-11-21T00:46:07;6.98;80.84
82506;SHT30;72144;51.444;10.560;2023-11-21T00:48:33;6.99;80.80
82506;SHT30;72144;51.444;10.560;2023-11-21T00:50:58;6.95;80.92
82506;SHT30;72144;51.444;10.560;2023-11-21T00:53:24;6.93;80.87
82506;SHT30;72144;51.444;10.560;2023-11-21T00:55:49;6.92;80.81
82506;SHT30;72144;51.444;10.560;2023-11-21T00:58:14;6.89;80.72
82506;SHT30;72144;51.444;10.560;2023-11-21T01:00:40;6.88;80.75
82506;SHT30;72144;51.444;10.560;2023-11-21T01:03:05;6.87;80.73
82506;SHT30;72144;51.444;10.560;2023-11-21T01:05:33;6.82;80.70
82506;SHT30;72144;51.444;10.560;2023-11-21T01:07:59;6.84;80.68
82506;SHT30;72144;51.444;10.560;2023-11-21T01:10:24;6.82;80.64
82506;SHT30;72144;51.444;10.560;2023-11-21T01:12:50;6.75;80.55
82506;SHT30;72144;51.444;10.560;2023-11-21T01:15:15;6.77;80.62
82506;SHT30;72144;51.444;10.560;2023-11-21T01:17:41;6.72;80.52
82506;SHT30;72144;51.444;10.560;2023-11-21T01:20:06;6.70;80.50
82506;SHT30;72144;51.444;10.560;2023-11-21T01:22:39;6.67;80.38
82506;SHT30;72144;51.444;10.560;2023-11-21T01:25:04;6.67;80.45
82506;SHT30;72144;51.444;10.560;2023-11-21T01:27:33;6.64;80.47
82506;SHT30;72144;51.444;10.560;2023-11-21T01:29:59;6.58;80.51
82506;SHT30;72144;51.444;10.560;2023-11-21T01:32:25;6.57;80.55
82506;SHT30;72144;51.444;10.560;2023-11-21T01:34:50;6.55;80.38
82506;SHT30;72144;51.444;10.560;2023-11-21T01:37:15;6.54;80.53
82506;SHT30;72144;51.444;10.560;2023-11-21T01:39:43;6.50;80.40
82506;SHT30;72144;51.444;10.560;2023-11-21T01:42:10;6.45;80.46
82506;SHT30;72144;51.444;10.560;2023-11-21T01:44:36;6.45;80.42
82506;SHT30;72144;51.444;10.560;2023-11-21T01:47:02;6.45;80.39
82506;SHT30;72144;51.444;10.560;2023-11-21T01:49:31;6.44;80.52
82506;SHT30;72144;51.444;10.560;2023-11-21T01:51:57;6.40;80.49
82506;SHT30;72144;51.444;10.560;2023-11-21T01:54:23;6.38;80.36
82506;SHT30;72144;51.444;10.560;2023-11-21T01:56:48;6.33;80.32
82506;SHT30;72144;51.444;10.560;2023-11-21T01:59:20;6.33;80.42
82506;SHT30;72144;51.444;10.560;2023-11-21T02:01:50;6.32;80.34
82506;SHT30;72144;51.444;10.560;2023-11-21T02:04:15;6.30;80.47
82506;SHT30;72144;51.444;10.560;2023-11-21T02:06:41;6.29;80.51
82506;SHT30;72144;51.444;10.560;2023-11-21T02:09:06;6.30;80.47
82506;SHT30;72144;51.444;10.560;2023-11-21T02:11:32;6.29;80.51
82506;SHT30;72144;51.444;10.560;2023-11-21T02:14:00;6.29;80.50
82506;SHT30;72144;51.444;10.560;2023-11-21T02:16:26;6.26;80.44
82506;SHT30;72144;51.444;10.560;2023-11-21T02:18:52;6.25;80.42
82506;SHT30;72144;51.444;10.560;2023-11-21T02:21:18;6.25;80.44
82506;SHT30;72144;51.444;10.560;2023-11-21T02:23:44;6.20;80.33
82506;SHT30;72144;51.444;10.560;2023-11-21T02:26:12;6.23;80.50
82506;SHT30;72144;51.444;10.560;2023-11-21T02:28:39;6.20;80.50
82506;SHT30;72144;51.444;10.560;2023-11-21T02:31:05;6.22;80.55
82506;SHT30;72144;51.444;10.560;2023-11-21T02:33:33;6.20;80.56
82506;SHT30;72144;51.444;10.560;2023-11-21T02:36:02;6.22;80.51
82506;SHT30;72144;51.444;10.560;2023-11-21T02:38:28;6.19;80.61
82506;SHT30;72144;51.444;10.560;2023-11-21T02:40:53;6.19;80.59
82506;SHT30;72144;51.444;10.560;2023-11-21T02:43:18;6.20;80.65
82506;SHT30;72144;51.444;10.560;2023-11-21T02:45:44;6.17;80.67
82506;SHT30;72144;51.444;10.560;2023-11-21T02:48:09;6.17;80.61
82506;SHT30;72144;51.444;10.560;2023-11-21T02:50:35;6.17;80.66
82506;SHT30;72144;51.444;10.560;2023-11-21T02:53:03;6.19;80.67
82506;SHT30;72144;51.444;10.560;2023-11-21T02:55:31;6.15;80.62
82506;SHT30;72144;51.444;10.560;2023-11-21T02:58:00;6.15;80.61
82506;SHT30;72144;51.444;10.560;2023-11-21T03:00:25;6.16;80.62
82506;SHT30;72144;51.444;10.560;2023-11-21T03:02:50;6.16;80.71
82506;SHT30;72144;51.444;10.560;2023-11-21T03:05:16;6.13;80.73
82506;SHT30;72144;51.444;10.560;2023-11-21T03:07:41;6.15;80.70
82506;SHT30;72144;51.444;10.560;2023-11-21T03:10:08;6.10;80.69
82506;SHT30;72144;51.444;10.560;2023-11-21T03:12:39;6.12;80.71
82506;SHT30;72144;51.444;10.560;2023-11-21T03:15:06;6.09;80.73
82506;SHT30;72144;51.444;10.560;2023-11-21T03:17:32;6.10;80.74
82506;SHT30;72144;51.444;10.560;2023-11-21T03:19:59;6.08;80.74
82506;SHT30;72144;51.444;10.560;2023-11-21T03:22:25;6.05;80.78
82506;SHT30;72144;51.444;10.560;2023-11-21T03:24:50;6.06;80.80
82506;SHT30;72144;51.444;10.560;2023-11-21T03:27:15;6.05;80.91
82506;SHT30;72144;51.444;10.560;2023-11-21T03:29:41;6.06;80.94
82506;SHT30;72144;51.444;10.560;2023-11-21T03:32:07;6.06;80.94
82506;SHT30;72144;51.444;10.560;2023-11-21T03:34:32;6.06;81.05
82506;SHT30;72144;51.444;10.560;2023-11-21T03:36:57;6.06;81.12
82506;SHT30;72144;51.444;10.560;2023-11-21T03:39:23;6.06;81.17
82506;SHT30;72144;51.444;10.560;2023-11-21T03:41:51;6.06;81.14
82506;SHT30;72144;51.444;10.560;2023-11-21T03:44:17;6.06;81.17
82506;SHT30;72144;51.444;10.560;2023-11-21T03:46:43;6.06;81.28
82506;SHT30;72144;51.444;10.560;2023-11-21T03:49:09;6.06;81.24
82506;SHT30;72144;51.444;10.560;2023-11-21T03:51:36;6.06;81.16
82506;SHT30;72144;51.444;10.560;2023-11-21T03:54:02;6.05;81.17
82506;SHT30;72144;51.444;10.560;2023-11-21T03:56:27;6.02;81.20
82506;SHT30;72144;51.444;10.560;2023-11-21T03:58:52;6.03;81.20
82506;SHT30;72144;51.444;10.560;2023-11-21T04:01:24;6.02;81.16
82506;SHT30;72144;51.444;10.560;2023-11-21T04:03:50;5.98;81.11
82506;SHT30;72144;51.444;10.560;2023-11-21T04:06:19;5.98;81.12
82506;SHT30;72144;51.444;10.560;2023-11-21T04:08:45;5.99;81.10
82506;SHT30;72144;51.444;10.560;2023-11-21T04:11:10;5.97;81.11
82506;SHT30;72144;51.444;10.560;2023-11-21T04:13:38;5.92;81.06
82506;SHT30;72144;51.444;10.560;2023-11-21T04:16:05;5.94;81.04
82506;SHT30;72144;51.444;10.560;2023-11-21T04:18:31;5.89;81.01
82506;SHT30;72144;51.444;10.560;2023-11-21T04:20:56;5.88;80.98
82506;SHT30;72144;51.444;10.560;2023-11-21T04:23:22;5.87;80.93
82506;SHT30;72144;51.444;10.560;2023-11-21T04:25:47;5.82;80.91
82506;SHT30;72144;51.444;10.560;2023-11-21T04:28:13;5.81;80.85
82506;SHT30;72144;51.444;10.560;2023-11-21T04:30:38;5.81;80.89
82506;SHT30;72144;51.444;10.560;2023-11-21T04:33:04;5.79;80.89
82506;SHT30;72144;51.444;10.560;2023-11-21T04:35:30;5.78;80.91
82506;SHT30;72144;51.444;10.560;2023-11-21T04:37:55;5.72;80.91
82506;SHT30;72144;51.444;10.560;2023-11-21T04:40:22;5.72;80.92
82506;SHT30;72144;51.444;10.560;2023-11-21T04:42:47;5.74;80.95
82506;SHT30;72144;51.444;10.560;2023-11-21T04:45:13;5.72;80.91
82506;SHT30;72144;51.444;10.560;2023-11-21T04:47:38;5.68;80.90
82506;SHT30;72144;51.444;10.560;2023-11-21T04:50:04;5.68;80.91
82506;SHT30;72144;51.444;10.560;2023-11-21T04:52:31;5.70;81.00
82506;SHT30;72144;51.444;10.560;2023-11-21T04:54:57;5.68;80.93
82506;SHT30;72144;51.444;10.560;2023-11-21T04:57:24;5.67;80.93
82506;SHT30;72144;51.444;10.560;2023-11-21T04:59:49;5.65;80.94
82506;SHT30;72144;51.444;10.560;2023-11-21T05:02:15;5.64;80.93
82506;SHT30;72144;51.444;10.560;2023-11-21T05:04:41;5.64;81.01
82506;SHT30;72144;51.444;10.560;2023-11-21T05:07:08;5.63;80.99
82506;SHT30;72144;51.444;10.560;2023-11-21T05:09:33;5.60;80.99
82506;SHT30;72144;51.444;10.560;2023-11-21T05:11:59;5.63;81.01
82506;SHT30;72144;51.444;10.560;2023-11-21T05:14:25;5.61;81.10
82506;SHT30;72144;51.444;10.560;2023-11-21T05:16:50;5.64;81.09
82506;SHT30;72144;51.444;10.560;2023-11-21T05:19:17;5.63;81.15
82506;SHT30;72144;51.444;10.560;2023-11-21T05:21:42;5.63;81.14
82506;SHT30;72144;51.444;10.560;2023-11-21T05:24:08;5.63;81.13
82506;SHT30;72144;51.444;10.560;2023-11-21T05:26:33;5.64;81.25
82506;SHT30;72144;51.444;10.560;2023-11-21T05:28:58;5.63;81.28
82506;SHT30;72144;51.444;10.560;2023-11-21T05:31:24;5.65;81.34
82506;SHT30;72144;51.444;10.560;2023-11-21T05:33:49;5.68;81.37
82506;SHT30;72144;51.444;10.560;2023-11-21T05:36:15;5.64;81.44
82506;SHT30;72144;51.444;10.560;2023-11-21T05:38:40;5.67;81.59
82506;SHT30;72144;51.444;10.560;2023-11-21T05:41:06;5.68;81.71
82506;SHT30;72144;51.444;10.560;2023-11-21T05:43:32;5.71;81.75
82506;SHT30;72144;51.444;10.560;2023-11-21T05:46:00;5.72;81.76
82506;SHT30;72144;51.444;10.560;2023-11-21T05:48:25;5.72;81.80
82506;SHT30;72144;51.444;10.560;2023-11-21T05:50:52;5.74;81.81
82506;SHT30;72144;51.444;10.560;2023-11-21T05:53:17;5.79;81.86
82506;SHT30;72144;51.444;10.560;2023-11-21T05:55:42;5.78;81.87
82506;SHT30;72144;51.444;10.560;2023-11-21T05:58:08;5.77;81.91
82506;SHT30;72144;51.444;10.560;2023-11-21T06:00:34;5.81;81.90
82506;SHT30;72144;51.444;10.560;2023-11-21T06:02:59;5.81;81.93
82506;SHT30;72144;51.444;10.560;2023-11-21T06:05:26;5.84;81.97
82506;SHT30;72144;51.444;10.560;2023-11-21T06:07:53;5.85;82.02
82506;SHT30;72144;51.444;10.560;2023-11-21T06:10:20;5.87;82.17
82506;SHT30;72144;51.444;10.560;2023-11-21T06:12:45;5.87;82.27
82506;SHT30;72144;51.444;10.560;2023-11-21T06:15:12;5.89;82.34
82506;SHT30;72144;51.444;10.560;2023-11-21T06:17:39;5.92;82.43
82506;SHT30;72144;51.444;10.560;2023-11-21T06:20:09;5.95;82.52
82506;SHT30;72144;51.444;10.560;2023-11-21T06:22:40;5.97;82.57
82506;SHT30;72144;51.444;10.560;2023-11-21T06:25:06;5.95;82.48
82506;SHT30;72144;51.444;10.560;2023-11-21T06:27:33;5.99;82.63
82506;SHT30;72144;51.444;10.560;2023-11-21T06:29:59;6.02;82.73
82506;SHT30;72144;51.444;10.560;2023-11-21T06:32:24;6.03;82.76
82506;SHT30;72144;51.444;10.560;2023-11-21T06:34:51;6.03;82.83
82506;SHT30;72144;51.444;10.560;2023-11-21T06:37:19;6.05;82.91
82506;SHT30;72144;51.444;10.560;2023-11-21T06:39:46;6.06;82.99
82506;SHT30;72144;51.444;10.560;2023-11-21T06:42:11;6.09;83.11
82506;SHT30;72144;51.444;10.560;2023-11-21T06:44:36;6.13;83.18
82506;SHT30;72144;51.444;10.560;2023-11-21T06:47:03;6.10;83.21
82506;SHT30;72144;51.444;10.560;2023-11-21T06:49:28;6.13;83.24
82506;SHT30;72144;51.444;10.560;2023-11-21T06:51:53;6.15;83.27
82506;SHT30;72144;51.444;10.560;2023-11-21T06:54:20;6.16;83.32
82506;SHT30;72144;51.444;10.560;2023-11-21T06:56:46;6.15;83.33
82506;SHT30;72144;51.444;10.560;2023-11-21T06:59:12;6.19;83.36
82506;SHT30;72144;51.444;10.560;2023-11-21T07:01:38;6.17;83.38
82506;SHT30;72144;51.444;10.560;2023-11-21T07:04:06;6.22;83.43
82506;SHT30;72144;51.444;10.560;2023-11-21T07:06:32;6.23;83.39
82506;SHT30;72144;51.444;10.560;2023-11-21T07:08:57;6.20;83.41
82506;SHT30;72144;51.444;10.560;2023-11-21T07:11:24;6.23;83.42
82506;SHT30;72144;51.444;10.560;2023-11-21T07:13:50;6.25;83.50
82506;SHT30;72144;51.444;10.560;2023-11-21T07:16:16;6.26;83.59
82506;SHT30;72144;51.444;10.560;2023-11-21T07:18:41;6.26;83.61
82506;SHT30;72144;51.444;10.560;2023-11-21T07:21:06;6.26;83.65
82506;SHT30;72144;51.444;10.560;2023-11-21T07:23:33;6.30;83.68
82506;SHT30;72144;51.444;10.560;2023-11-21T07:25:59;6.29;83.73
82506;SHT30;72144;51.444;10.560;2023-11-21T07:28:24;6.36;83.77
82506;SHT30;72144;51.444;10.560;2023-11-21T07:30:51;6.36;83.87
82506;SHT30;72144;51.444;10.560;2023-11-21T07:33:16;6.37;83.91
82506;SHT30;72144;51.444;10.560;2023-11-21T07:35:42;6.37;83.95
82506;SHT30;72144;51.444;10.560;2023-11-21T07:38:08;6.38;84.01
82506;SHT30;72144;51.444;10.560;2023-11-21T07:40:33;6.41;84.08
82506;SHT30;72144;51.444;10.560;2023-11-21T07:42:59;6.41;84.15
82506;SHT30;72144;51.444;10.560;2023-11-21T07:45:25;6.43;84.22
82506;SHT30;72144;51.444;10.560;2023-11-21T07:47:53;6.45;84.21
82506;SHT30;72144;51.444;10.560;2023-11-21T07:50:18;6.44;84.28
82506;SHT30;72144;51.444;10.560;2023-11-21T07:52:45;6.48;84.31
82506;SHT30;72144;51.444;10.560;2023-11-21T07:55:10;6.50;84.35
82506;SHT30;72144;51.444;10.560;2023-11-21T07:57:37;6.48;84.33
82506;SHT30;72144;51.444;10.560;2023-11-21T08:00:04;6.50;84.44
82506;SHT30;72144;51.444;10.560;2023-11-21T08:02:31;6.51;84.46
82506;SHT30;72144;51.444;10.560;2023-11-21T08:04:57;6.53;84.48
82506;SHT30;72144;51.444;10.560;2023-11-21T08:07:23;6.55;84.48
82506;SHT30;72144;51.444;10.560;2023-11-21T08:09:51;6.54;84.67
82506;SHT30;72144;51.444;10.560;2023-11-21T08:12:16;6.57;84.59
82506;SHT30;72144;51.444;10.560;2023-11-21T08:14:42;6.61;84.53
82506;SHT30;72144;51.444;10.560;2023-11-21T08:17:09;6.63;84.48
82506;SHT30;72144;51.444;10.560;2023-11-21T08:19:35;6.64;84.45
82506;SHT30;72144;51.444;10.560;2023-11-21T08:22:02;6.67;84.39
82506;SHT30;72144;51.444;10.560;2023-11-21T08:24:28;6.68;84.37
82506;SHT30;72144;51.444;10.560;2023-11-21T08:26:53;6.70;84.37
82506;SHT30;72144;51.444;10.560;2023-11-21T08:29:19;6.75;84.33
82506;SHT30;72144;51.444;10.560;2023-11-21T08:31:45;6.75;84.32
82506;SHT30;72144;51.444;10.560;2023-11-21T08:34:13;6.78;84.25
82506;SHT30;72144;51.444;10.560;2023-11-21T08:36:43;6.81;84.25
82506;SHT30;72144;51.444;10.560;2023-11-21T08:39:08;6.85;84.25
82506;SHT30;72144;51.444;10.560;2023-11-21T08:41:34;6.87;84.28
82506;SHT30;72144;51.444;10.560;2023-11-21T08:44:02;6.89;84.26
82506;SHT30;72144;51.444;10.560;2023-11-21T08:46:27;6.89;84.24
82506;SHT30;72144;51.444;10.560;2023-11-21T08:48:52;6.92;84.21
82506;SHT30;72144;51.444;10.560;2023-11-21T08:51:18;6.95;84.28
82506;SHT30;72144;51.444;10.560;2023-11-21T08:53:44;7.00;84.29
82506;SHT30;72144;51.444;10.560;2023-11-21T08:56:13;7.00;84.33
82506;SHT30;72144;51.444;10.560;2023-11-21T08:58:39;7.02;84.31
82506;SHT30;72144;51.444;10.560;2023-11-21T09:01:05;7.06;84.36
82506;SHT30;72144;51.444;10.560;2023-11-21T09:03:32;7.07;84.35
82506;SHT30;72144;51.444;10.560;2023-11-21T09:05:59;7.10;84.34
82506;SHT30;72144;51.444;10.560;2023-11-21T09:08:25;7.12;84.33
82506;SHT30;72144;51.444;10.560;2023-11-21T09:10:50;7.13;84.26
82506;SHT30;72144;51.444;10.560;2023-11-21T09:13:16;7.16;84.31
82506;SHT30;72144;51.444;10.560;2023-11-21T09:15:43;7.19;84.27
82506;SHT30;72144;51.444;10.560;2023-11-21T09:18:13;7.19;84.29
82506;SHT30;72144;51.444;10.560;2023-11-21T09:20:38;7.23;84.38
82506;SHT30;72144;51.444;10.560;2023-11-21T09:23:03;7.23;84.39
82506;SHT30;72144;51.444;10.560;2023-11-21T09:25:29;7.24;84.41
82506;SHT30;72144;51.444;10.560;2023-11-21T09:27:54;7.26;84.48
82506;SHT30;72144;51.444;10.560;2023-11-21T09:30:19;7.27;84.42
82506;SHT30;72144;51.444;10.560;2023-11-21T09:32:45;7.28;84.53
82506;SHT30;72144;51.444;10.560;2023-11-21T09:35:10;7.30;84.58
82506;SHT30;72144;51.444;10.560;2023-11-21T09:37:36;7.33;84.65
82506;SHT30;72144;51.444;10.560;2023-11-21T09:40:04;7.31;84.67
82506;SHT30;72144;51.444;10.560;2023-11-21T09:42:38;7.34;84.66
82506;SHT30;72144;51.444;10.560;2023-11-21T09:47:30;7.35;84.67
82506;SHT30;72144;51.444;10.560;2023-11-21T09:49:56;7.40;84.74
82506;SHT30;72144;51.444;10.560;2023-11-21T09:52:27;7.40;84.71
82506;SHT30;72144;51.444;10.560;2023-11-21T09:54:53;7.40;84.70
82506;SHT30;72144;51.444;10.560;2023-11-21T09:57:22;7.43;84.75
82506;SHT30;72144;51.444;10.560;2023-11-21T09:59:51;7.46;84.70
82506;SHT30;72144;51.444;10.560;2023-11-21T10:02:18;7.44;84.73
82506;SHT30;72144;51.444;10.560;2023-11-21T10:04:46;7.46;84.76
82506;SHT30;72144;51.444;10.560;2023-11-21T10:07:13;7.47;84.77
82506;SHT30;72144;51.444;10.560;2023-11-21T10:09:42;7.48;84.80
82506;SHT30;72144;51.444;10.560;2023-11-21T10:12:09;7.50;84.78
82506;SHT30;72144;51.444;10.560;2023-11-21T10:14:37;7.50;84.77
82506;SHT30;72144;51.444;10.560;2023-11-21T10:17:07;7.51;84.78
82506;SHT30;72144;51.444;10.560;2023-11-21T10:19:35;7.54;84.78
82506;SHT30;72144;51.444;10.560;2023-11-21T10:22:01;7.54;84.79
82506;SHT30;72144;51.444;10.560;2023-11-21T10:24:27;7.55;84.81
82506;SHT30;72144;51.444;10.560;2023-11-21T10:26:52;7.59;84.81
82506;SHT30;72144;51.444;10.560;2023-11-21T10:29:19;7.58;84.78
82506;SHT30;72144;51.444;10.560;2023-11-21T10:31:49;7.61;84.77
82506;SHT30;72144;51.444;10.560;2023-11-21T10:34:16;7.65;84.78
82506;SHT30;72144;51.444;10.560;2023-11-21T10:36:41;7.68;84.78
82506;SHT30;72144;51.444;10.560;2023-11-21T10:39:07;7.68;84.76
82506;SHT30;72144;51.444;10.560;2023-11-21T10:41:32;7.68;84.80
82506;SHT30;72144;51.444;10.560;2023-11-21T10:43:58;7.69;84.77
82506;SHT30;72144;51.444;10.560;2023-11-21T10:46:23;7.72;84.77
82506;SHT30;72144;51.444;10.560;2023-11-21T10:48:53;7.72;84.84
82506;SHT30;72144;51.444;10.560;2023-11-21T10:51:21;7.74;84.81
82506;SHT30;72144;51.444;10.560;2023-11-21T10:53:46;7.72;84.82
82506;SHT30;72144;51.444;10.560;2023-11-21T10:56:14;7.75;84.83
82506;SHT30;72144;51.444;10.560;2023-11-21T10:58:43;7.76;84.86
82506;SHT30;72144;51.444;10.560;2023-11-21T11:01:09;7.76;84.88
82506;SHT30;72144;51.444;10.560;2023-11-21T11:03:37;7.81;84.90
82506;SHT30;72144;51.444;10.560;2023-11-21T11:06:04;7.79;84.93
82506;SHT30;72144;51.444;10.560;2023-11-21T11:08:30;7.82;84.95
82506;SHT30;72144;51.444;10.560;2023-11-21T11:10:56;7.83;84.92
82506;SHT30;72144;51.444;10.560;2023-11-21T11:13:23;7.82;84.94
82506;SHT30;72144;51.444;10.560;2023-11-21T11:15:49;7.85;84.95
82506;SHT30;72144;51.444;10.560;2023-11-21T11:18:16;7.83;85.00
82506;SHT30;72144;51.444;10.560;2023-11-21T11:20:43;7.85;85.05
82506;SHT30;72144;51.444;10.560;2023-11-21T11:23:28;7.85;85.04
82506;SHT30;72144;51.444;10.560;2023-11-21T11:26:32;7.83;85.08
82506;SHT30;72144;51.444;10.560;2023-11-21T11:29:13;7.83;85.06
82506;SHT30;72144;51.444;10.560;2023-11-21T11:34:48;7.86;85.14
82506;SHT30;72144;51.444;10.560;2023-11-21T11:37:15;7.83;85.19
82506;SHT30;72144;51.444;10.560;2023-11-21T11:39:42;7.83;85.20
82506;SHT30;72144;51.444;10.560;2023-11-21T11:42:12;7.85;85.21
82506;SHT30;72144;51.444;10.560;2023-11-21T11:47:19;7.83;85.25
82506;SHT30;72144;51.444;10.560;2023-11-21T11:50:07;7.86;85.31
82506;SHT30;72144;51.444;10.560;2023-11-21T11:52:41;7.85;85.26
82506;SHT30;72144;51.444;10.560;2023-11-21T11:55:09;7.85;85.29
82506;SHT30;72144;51.444;10.560;2023-11-21T11:57:35;7.83;85.33
82506;SHT30;72144;51.444;10.560;2023-11-21T12:00:12;7.85;85.30
82506;SHT30;72144;51.444;10.560;2023-11-21T12:02:42;7.86;85.38
82506;SHT30;72144;51.444;10.560;2023-11-21T12:05:15;7.87;85.28
82506;SHT30;72144;51.444;10.560;2023-11-21T12:07:44;7.89;85.33
82506;SHT30;72144;51.444;10.560;2023-11-21T12:10:15;7.87;85.29
82506;SHT30;72144;51.444;10.560;2023-11-21T12:12:50;7.90;85.30
82506;SHT30;72144;51.444;10.560;2023-11-21T12:15:17;7.92;85.30
82506;SHT30;72144;51.444;10.560;2023-11-21T12:17:44;7.92;85.22
82506;SHT30;72144;51.444;10.560;2023-11-21T12:20:14;7.90;85.15
82506;SHT30;72144;51.444;10.560;2023-11-21T12:22:50;7.92;85.09
82506;SHT30;72144;51.444;10.560;2023-11-21T12:27:46;7.92;84.97
82506;SHT30;72144;51.444;10.560;2023-11-21T12:30:12;7.93;84.96
82506;SHT30;72144;51.444;10.560;2023-11-21T12:32:42;7.92;84.98
82506;SHT30;72144;51.444;10.560;2023-11-21T12:35:09;7.96;84.98
82506;SHT30;72144;51.444;10.560;2023-11-21T12:37:39;7.95;84.89
82506;SHT30;72144;51.444;10.560;2023-11-21T12:40:06;7.93;84.95
82506;SHT30;72144;51.444;10.560;2023-11-21T12:42:43;7.92;84.84
82506;SHT30;72144;51.444;10.560;2023-11-21T12:45:21;7.92;84.88
82506;SHT30;72144;51.444;10.560;2023-11-21T12:47:50;7.89;84.95
82506;SHT30;72144;51.444;10.560;2023-11-21T12:50:20;7.89;85.06
82506;SHT30;72144;51.444;10.560;2023-11-21T12:52:52;7.87;85.15
82506;SHT30;72144;51.444;10.560;2023-11-21T12:55:20;7.87;85.10
82506;SHT30;72144;51.444;10.560;2023-11-21T12:57:53;7.86;85.16
82506;SHT30;72144;51.444;10.560;2023-11-21T13:00:31;7.86;85.12
82506;SHT30;72144;51.444;10.560;2023-11-21T13:02:58;7.83;85.09
82506;SHT30;72144;51.444;10.560;2023-11-21T13:05:28;7.85;84.95
82506;SHT30;72144;51.444;10.560;2023-11-21T13:07:55;7.85;84.95
82506;SHT30;72144;51.444;10.560;2023-11-21T13:10:24;7.85;84.56
82506;SHT30;72144;51.444;10.560;2023-11-21T13:12:52;7.82;84.53
82506;SHT30;72144;51.444;10.560;2023-11-21T13:15:18;7.81;84.52
82506;SHT30;72144;51.444;10.560;2023-11-21T13:17:44;7.83;84.42
82506;SHT30;72144;51.444;10.560;2023-11-21T13:20:11;7.81;84.42
82506;SHT30;72144;51.444;10.560;2023-11-21T13:25:14;7.79;84.40
82506;SHT30;72144;51.444;10.560;2023-11-21T13:27:40;7.81;84.20
82506;SHT30;72144;51.444;10.560;2023-11-21T13:30:08;7.78;84.19
82506;SHT30;72144;51.444;10.560;2023-11-21T13:32:33;7.81;84.26
82506;SHT30;72144;51.444;10.560;2023-11-21T13:34:59;7.78;84.16
82506;SHT30;72144;51.444;10.560;2023-11-21T13:37:25;7.76;83.99
82506;SHT30;72144;51.444;10.560;2023-11-21T13:39:53;7.75;83.89
82506;SHT30;72144;51.444;10.560;2023-11-21T13:42:19;7.72;84.05
82506;SHT30;72144;51.444;10.560;2023-11-21T13:44:48;7.74;84.04
82506;SHT30;72144;51.444;10.560;2023-11-21T13:47:14;7.74;84.05
82506;SHT30;72144;51.444;10.560;2023-11-21T13:49:39;7.71;84.09
82506;SHT30;72144;51.444;10.560;2023-11-21T13:52:07;7.68;84.15
82506;SHT30;72144;51.444;10.560;2023-11-21T13:54:33;7.69;84.21
82506;SHT30;72144;51.444;10.560;2023-11-21T13:56:58;7.67;84.15
82506;SHT30;72144;51.444;10.560;2023-11-21T13:59:25;7.64;84.11
82506;SHT30;72144;51.444;10.560;2023-11-21T14:01:53;7.64;84.19
82506;SHT30;72144;51.444;10.560;2023-11-21T14:04:24;7.61;84.18
82506;SHT30;72144;51.444;10.560;2023-11-21T14:06:55;7.59;84.21
82506;SHT30;72144;51.444;10.560;2023-11-21T14:09:23;7.58;84.19
82506;SHT30;72144;51.444;10.560;2023-11-21T14:11:56;7.58;84.10
82506;SHT30;72144;51.444;10.560;2023-11-21T14:14:23;7.58;84.14
82506;SHT30;72144;51.444;10.560;2023-11-21T14:16:50;7.54;84.10
82506;SHT30;72144;51.444;10.560;2023-11-21T14:19:16;7.54;84.07
82506;SHT30;72144;51.444;10.560;2023-11-21T14:21:42;7.52;84.10
82506;SHT30;72144;51.444;10.560;2023-11-21T14:24:09;7.50;84.07
82506;SHT30;72144;51.444;10.560;2023-11-21T14:26:35;7.48;83.94
82506;SHT30;72144;51.444;10.560;2023-11-21T14:29:00;7.46;84.04
82506;SHT30;72144;51.444;10.560;2023-11-21T14:31:26;7.43;83.99
82506;SHT30;72144;51.444;10.560;2023-11-21T14:33:53;7.44;83.95
82506;SHT30;72144;51.444;10.560;2023-11-21T14:36:18;7.41;83.97
82506;SHT30;72144;51.444;10.560;2023-11-21T14:38:44;7.40;83.89
82506;SHT30;72144;51.444;10.560;2023-11-21T14:41:09;7.38;83.91
82506;SHT30;72144;51.444;10.560;2023-11-21T14:43:36;7.38;83.89
82506;SHT30;72144;51.444;10.560;2023-11-21T14:46:03;7.37;83.85
82506;SHT30;72144;51.444;10.560;2023-11-21T14:48:39;7.33;83.82
82506;SHT30;72144;51.444;10.560;2023-11-21T14:51:11;7.33;83.77
82506;SHT30;72144;51.444;10.560;2023-11-21T14:53:56;7.31;83.81
82506;SHT30;72144;51.444;10.560;2023-11-21T14:56:26;7.30;83.71
82506;SHT30;72144;51.444;10.560;2023-11-21T14:58:54;7.27;83.66
82506;SHT30;72144;51.444;10.560;2023-11-21T15:01:25;7.26;83.66
82506;SHT30;72144;51.444;10.560;2023-11-21T15:04:09;7.27;83.59
82506;SHT30;72144;51.444;10.560;2023-11-21T15:06:46;7.24;83.51
82506;SHT30;72144;51.444;10.560;2023-11-21T15:09:13;7.24;83.41
82506;SHT30;72144;51.444;10.560;2023-11-21T15:11:38;7.20;83.34
82506;SHT30;72144;51.444;10.560;2023-11-21T15:14:04;7.17;83.35
82506;SHT30;72144;51.444;10.560;2023-11-21T15:16:35;7.15;83.34
82506;SHT30;72144;51.444;10.560;2023-11-21T15:19:11;7.15;83.33
82506;SHT30;72144;51.444;10.560;2023-11-21T15:21:43;7.10;83.34
82506;SHT30;72144;51.444;10.560;2023-11-21T15:24:09;7.10;83.37
82506;SHT30;72144;51.444;10.560;2023-11-21T15:26:36;7.07;83.32
82506;SHT30;72144;51.444;10.560;2023-11-21T15:29:01;7.07;83.29
82506;SHT30;72144;51.444;10.560;2023-11-21T15:31:26;7.05;83.31
82506;SHT30;72144;51.444;10.560;2023-11-21T15:33:52;7.05;83.38
82506;SHT30;72144;51.444;10.560;2023-11-21T15:36:19;7.03;83.44
82506;SHT30;72144;51.444;10.560;2023-11-21T15:38:45;7.02;83.45
82506;SHT30;72144;51.444;10.560;2023-11-21T15:41:10;7.00;83.42
82506;SHT30;72144;51.444;10.560;2023-11-21T15:43:36;6.98;83.43